createdAt,value
2023-05-05T00:00:58.293Z,98986.40
2023-05-05T00:03:26.012Z,98985.40
2023-05-05T00:05:55.372Z,98983.35
2023-05-05T00:08:22.836Z,98978.63
2023-05-05T00:10:50.865Z,98981.55
2023-05-05T00:13:19.023Z,98980.20
2023-05-05T00:15:48.978Z,98979.42
2023-05-05T00:18:16.994Z,98976.75
2023-05-05T00:20:46.937Z,98975.25
2023-05-05T00:23:14.700Z,98975.64
2023-05-05T00:25:41.621Z,98971.73
2023-05-05T00:28:08.700Z,98971.19
2023-05-05T00:30:36.535Z,98968.21
2023-05-05T00:33:03.764Z,98963.63
2023-05-05T00:35:30.691Z,98962.09
2023-05-05T00:37:58.346Z,98960.98
2023-05-05T00:40:25.427Z,98959.16
2023-05-05T00:42:52.511Z,98951.08
2023-05-05T00:45:20.697Z,98948.14
2023-05-05T00:47:51.519Z,98944.41
2023-05-05T00:50:23.990Z,98941.16
2023-05-05T00:52:53.830Z,98934.09
2023-05-05T00:55:20.982Z,98936.82
2023-05-05T00:57:48.753Z,98938.14
2023-05-05T01:00:16.854Z,98940.88
2023-05-05T01:02:45.180Z,98940.17
2023-05-05T01:05:14.427Z,98937.08
2023-05-05T01:07:44.908Z,98938.73
2023-05-05T01:10:42.615Z,98944.04
2023-05-05T01:13:24.605Z,98950.31
2023-05-05T01:16:09.725Z,98955.79
2023-05-05T01:18:42.257Z,98953.38
2023-05-05T01:21:24.628Z,98958.73
2023-05-05T01:24:22.321Z,98960.17
2023-05-05T01:27:00.626Z,98958.99
2023-05-05T01:29:41.540Z,98955.55
2023-05-05T01:32:10.941Z,98948.86
2023-05-05T01:34:44.346Z,98947.86
2023-05-05T01:37:21.096Z,98944.44
2023-05-05T01:39:53.170Z,98944.14
2023-05-05T01:42:22.439Z,98944.83
2023-05-05T01:44:52.128Z,98943.26
2023-05-05T01:47:22.319Z,98945.73
2023-05-05T01:49:50.465Z,98946.88
2023-05-05T01:52:18.366Z,98945.02
2023-05-05T01:54:46.741Z,98942.23
2023-05-05T01:57:15.565Z,98942.52
2023-05-05T01:59:42.752Z,98941.85
2023-05-05T02:02:12.374Z,98942.98
2023-05-05T02:04:43.776Z,98941.39
2023-05-05T02:07:13.173Z,98938.86
2023-05-05T02:09:42.336Z,98936.98
2023-05-05T02:12:10.947Z,98937.34
2023-05-05T02:14:40.386Z,98938.98
2023-05-05T02:17:08.393Z,98939.02
2023-05-05T02:19:40.297Z,98937.79
2023-05-05T02:22:07.429Z,98940.92
2023-05-05T02:24:34.656Z,98938.55
2023-05-05T02:27:04.080Z,98937.67
2023-05-05T02:29:34.843Z,98941.25
2023-05-05T02:32:06.759Z,98944.97
2023-05-05T02:34:36.886Z,98937.83
2023-05-05T02:37:08.685Z,98936.41
2023-05-05T02:39:43.663Z,98938.54
2023-05-05T02:42:18.532Z,98938.71
2023-05-05T02:44:47.652Z,98937.31
2023-05-05T02:47:14.789Z,98935.83
2023-05-05T02:49:43.159Z,98930.55
2023-05-05T02:52:10.173Z,98939.20
2023-05-05T02:54:38.174Z,98937.95
2023-05-05T02:57:13.026Z,98932.42
2023-05-05T02:59:53.384Z,98929.15
2023-05-05T03:02:31.598Z,98930.37
2023-05-05T03:05:03.223Z,98929.48
2023-05-05T03:07:38.275Z,98932.50
2023-05-05T03:10:12.425Z,98927.29
2023-05-05T03:12:46.659Z,98930.02
2023-05-05T03:15:22.429Z,98932.04
2023-05-05T03:17:50.941Z,98930.45
2023-05-05T03:20:18.208Z,98927.94
2023-05-05T03:22:46.540Z,98925.06
2023-05-05T03:25:13.638Z,98927.87
2023-05-05T03:27:41.305Z,98929.66
2023-05-05T03:30:09.533Z,98936.10
2023-05-05T03:32:39.606Z,98942.39
2023-05-05T03:35:07.299Z,98940.80
2023-05-05T03:37:34.268Z,98940.54
2023-05-05T03:40:01.494Z,98942.84
2023-05-05T03:42:28.735Z,98946.40
2023-05-05T03:44:55.634Z,98943.21
2023-05-05T03:47:24.791Z,98941.94
2023-05-05T03:49:52.523Z,98942.25
2023-05-05T03:52:20.355Z,98942.98
2023-05-05T03:54:47.967Z,98946.23
2023-05-05T03:57:15.129Z,98946.42
2023-05-05T03:59:42.299Z,98946.33
2023-05-05T04:02:10.288Z,98941.30
2023-05-05T04:04:37.704Z,98943.30
2023-05-05T04:07:04.927Z,98946.05
2023-05-05T04:09:32.234Z,98937.88
2023-05-05T04:12:03.381Z,98938.58
2023-05-05T04:14:31.455Z,98938.54
2023-05-05T04:16:58.655Z,98928.27
2023-05-05T04:19:26.086Z,98936.23
2023-05-05T04:21:54.316Z,98936.91
2023-05-05T04:24:25.847Z,98939.13
2023-05-05T04:26:54.735Z,98939.20
2023-05-05T04:29:22.469Z,98943.55
2023-05-05T04:31:52.451Z,98943.66
2023-05-05T04:34:22.645Z,98948.61
2023-05-05T04:36:50.340Z,98952.20
2023-05-05T04:39:20.391Z,98948.21
2023-05-05T04:41:48.147Z,98946.30
2023-05-05T04:44:16.493Z,98948.54
2023-05-05T04:46:44.545Z,98952.64
2023-05-05T04:49:12.030Z,98956.78
2023-05-05T04:51:43.420Z,98950.00
2023-05-05T04:54:11.661Z,98954.35
2023-05-05T04:56:42.050Z,98950.48
2023-05-05T04:59:19.651Z,98962.86
2023-05-05T05:02:00.890Z,98951.75
2023-05-05T05:04:28.720Z,98958.75
2023-05-05T05:06:58.445Z,98964.86
2023-05-05T05:09:27.111Z,98960.77
2023-05-05T05:12:03.072Z,98970.23
2023-05-05T05:14:31.122Z,98964.15
2023-05-05T05:17:03.090Z,98972.35
2023-05-05T05:19:39.154Z,98974.55
2023-05-05T05:22:06.876Z,98976.83
2023-05-05T05:24:36.744Z,98970.97
2023-05-05T05:27:13.472Z,98971.52
2023-05-05T05:29:45.029Z,98974.23
2023-05-05T05:32:15.503Z,98982.86
2023-05-05T05:34:43.050Z,98980.58
2023-05-05T05:37:12.144Z,98984.04
2023-05-05T05:39:43.190Z,98969.48
2023-05-05T05:42:11.369Z,98977.48
2023-05-05T05:44:38.802Z,98976.54
2023-05-05T05:47:08.064Z,98973.58
2023-05-05T05:49:52.147Z,98963.82
2023-05-05T05:52:29.477Z,98964.42
2023-05-05T05:54:57.298Z,98977.50
2023-05-05T05:57:25.630Z,98979.35
2023-05-05T05:59:55.406Z,98969.89
2023-05-05T06:02:25.463Z,98971.60
2023-05-05T06:05:01.120Z,98978.78
2023-05-05T06:07:37.162Z,98977.99
2023-05-05T06:10:26.743Z,98974.59
2023-05-05T06:13:16.800Z,98976.20
2023-05-05T06:15:52.495Z,98983.91
2023-05-05T06:18:33.339Z,98987.34
2023-05-05T06:21:03.849Z,98978.86
2023-05-05T06:23:33.897Z,98970.85
2023-05-05T06:26:09.092Z,98970.80
2023-05-05T06:28:42.447Z,98970.17
2023-05-05T06:31:23.385Z,98964.65
2023-05-05T06:34:00.703Z,98960.41
2023-05-05T06:36:50.950Z,98971.61
2023-05-05T06:39:46.943Z,98968.10
2023-05-05T06:42:17.156Z,98968.61
2023-05-05T06:44:45.988Z,98967.91
2023-05-05T06:47:14.030Z,98956.20
2023-05-05T06:49:41.346Z,98963.73
2023-05-05T06:52:08.713Z,98961.14
2023-05-05T06:54:35.908Z,98956.86
2023-05-05T06:57:03.509Z,98939.00
2023-05-05T06:59:36.470Z,98953.05
2023-05-05T07:02:06.886Z,98953.88
2023-05-05T07:04:37.458Z,98949.29
2023-05-05T07:07:17.537Z,98946.77
2023-05-05T07:09:45.598Z,98947.00
2023-05-05T07:12:15.828Z,98947.46
2023-05-05T07:14:44.213Z,98943.95
2023-05-05T07:17:14.988Z,98941.59
2023-05-05T07:23:07.816Z,98940.39
2023-05-05T07:25:39.146Z,98939.66
2023-05-05T07:28:07.772Z,98933.21
2023-05-05T07:30:40.955Z,98930.74
2023-05-05T07:33:11.032Z,98921.72
2023-05-05T07:35:52.841Z,98920.30
2023-05-05T07:38:35.021Z,98912.41
2023-05-05T07:41:45.245Z,98917.79
2023-05-05T07:44:46.416Z,98915.79
2023-05-05T07:54:05.136Z,98914.09
2023-05-05T07:58:38.586Z,98916.70
2023-05-05T08:01:23.169Z,98912.13
2023-05-05T08:04:09.225Z,98913.67
2023-05-05T08:06:47.580Z,98923.67
2023-05-05T08:09:44.638Z,98920.47
2023-05-05T08:16:41.997Z,98911.67
2023-05-05T08:19:27.581Z,98918.81
2023-05-05T08:30:37.374Z,98914.67
2023-05-05T08:33:18.929Z,98914.75
2023-05-05T08:36:57.656Z,98906.14
2023-05-05T08:39:14.013Z,98909.77
2023-05-05T08:41:51.333Z,98909.66
2023-05-05T08:44:31.890Z,98909.28
2023-05-05T08:47:15.807Z,98907.29
2023-05-05T08:50:28.542Z,98902.73
2023-05-05T08:57:49.815Z,98896.88
2023-05-05T09:00:50.018Z,98899.42
2023-05-05T09:03:25.248Z,98902.92
2023-05-05T09:10:39.932Z,98896.45
2023-05-05T09:13:30.581Z,98893.40
2023-05-05T09:16:29.796Z,98906.92
2023-05-05T09:19:09.192Z,98899.62
2023-05-05T09:22:11.219Z,98894.74
2023-05-05T09:25:08.174Z,98897.08
2023-05-05T09:27:48.458Z,98897.98
2023-05-05T09:30:37.466Z,98896.14
2023-05-05T09:33:07.003Z,98902.46
2023-05-05T09:35:56.852Z,98901.48
2023-05-05T09:38:42.433Z,98892.80
2023-05-05T09:41:28.356Z,98897.91
2023-05-05T09:47:44.262Z,98895.10
2023-05-05T09:50:26.371Z,98895.45
2023-05-05T09:53:05.875Z,98905.84
2023-05-05T10:01:23.785Z,98883.60
2023-05-05T10:04:12.761Z,98896.16
2023-05-05T10:06:45.881Z,98893.75
2023-05-05T10:09:21.624Z,98882.35
2023-05-05T10:11:57.349Z,98887.24
2023-05-05T10:14:26.600Z,98889.70
2023-05-05T10:16:58.597Z,98880.61
2023-05-05T10:19:40.280Z,98887.55
2023-05-05T10:22:43.011Z,98893.17
2023-05-05T10:25:18.395Z,98887.70
2023-05-05T10:27:50.073Z,98890.81
2023-05-05T10:30:52.672Z,98894.41
2023-05-05T10:33:48.227Z,98880.12
2023-05-05T10:36:25.058Z,98886.63
2023-05-05T10:39:11.274Z,98886.33
2023-05-05T10:41:45.294Z,98882.90
2023-05-05T10:44:15.538Z,98879.09
2023-05-05T10:46:51.200Z,98879.32
2023-05-05T10:49:40.010Z,98873.80
2023-05-05T10:52:09.725Z,98870.50
2023-05-05T10:55:07.191Z,98870.45
2023-05-05T10:57:40.300Z,98878.69
2023-05-05T11:00:10.235Z,98864.12
2023-05-05T11:02:40.643Z,98864.09
2023-05-05T11:05:21.554Z,98869.46
2023-05-05T11:07:54.689Z,98862.37
2023-05-05T11:10:25.110Z,98857.41
2023-05-05T11:13:08.179Z,98861.23
2023-05-05T11:15:41.176Z,98858.33
2023-05-05T11:18:30.837Z,98857.80
2023-05-05T11:21:03.573Z,98850.13
2023-05-05T11:23:32.286Z,98853.66
2023-05-05T11:26:01.953Z,98850.83
2023-05-05T11:28:36.445Z,98841.79
2023-05-05T11:31:24.570Z,98835.23
2023-05-05T11:33:52.617Z,98835.38
2023-05-05T11:36:21.732Z,98848.04
2023-05-05T11:39:25.584Z,98839.90
2023-05-05T11:42:11.075Z,98838.92
2023-05-05T11:44:51.471Z,98831.86
2023-05-05T11:47:35.611Z,98836.10
2023-05-05T11:50:40.204Z,98831.79
2023-05-05T11:54:02.769Z,98832.64
2023-05-05T11:57:02.292Z,98827.64
2023-05-05T12:00:06.707Z,98835.25
2023-05-05T12:03:24.848Z,98822.59
2023-05-05T12:06:39.642Z,98828.33
2023-05-05T12:09:43.919Z,98822.14
2023-05-05T12:12:40.534Z,98818.52
2023-05-05T12:27:05.385Z,98808.89
2023-05-05T12:30:32.299Z,98804.79
2023-05-05T12:34:35.449Z,98812.79
2023-05-05T12:37:21.106Z,98817.67
2023-05-05T12:40:09.445Z,98817.75
2023-05-05T12:43:00.688Z,98801.75
2023-05-05T12:45:31.181Z,98806.98
2023-05-05T12:48:59.087Z,98802.04
2023-05-05T12:51:52.416Z,98798.71
2023-05-05T12:55:05.566Z,98804.70
2023-05-05T12:58:33.146Z,98799.12
2023-05-05T13:01:22.765Z,98795.56
2023-05-05T13:04:17.767Z,98793.52
2023-05-05T13:07:17.377Z,98798.35
2023-05-05T13:11:12.696Z,98785.41
2023-05-05T13:14:19.339Z,98779.29
2023-05-05T13:16:54.764Z,98778.31
2023-05-05T13:19:32.225Z,98780.23
2023-05-05T13:22:02.102Z,98768.65
2023-05-05T13:24:46.539Z,98775.71
2023-05-05T13:27:16.673Z,98774.92
2023-05-05T13:29:43.860Z,98772.91
2023-05-05T13:32:10.672Z,98771.84
2023-05-05T13:34:39.280Z,98775.75
2023-05-05T13:37:06.471Z,98772.66
2023-05-05T13:39:33.414Z,98762.87
2023-05-05T13:42:00.519Z,98757.68
2023-05-05T13:44:27.368Z,98760.10
2023-05-05T13:46:54.207Z,98756.06
2023-05-05T13:49:21.197Z,98757.86
2023-05-05T13:51:48.044Z,98755.13
2023-05-05T13:54:14.867Z,98752.61
2023-05-05T13:56:42.121Z,98748.22
2023-05-05T13:59:12.049Z,98745.34
2023-05-05T14:01:39.386Z,98748.76
2023-05-05T14:04:06.383Z,98745.88
2023-05-05T14:06:33.900Z,98742.24
2023-05-05T14:09:00.825Z,98740.81
2023-05-05T14:11:27.789Z,98742.97
2023-05-05T14:13:54.937Z,98740.09
2023-05-05T14:16:21.869Z,98744.35
2023-05-05T14:19:04.388Z,98738.45
2023-05-05T14:21:32.574Z,98731.01
2023-05-05T14:23:59.414Z,98727.98
2023-05-05T14:26:26.523Z,98730.41
2023-05-05T14:28:53.465Z,98735.42
2023-05-05T14:31:20.412Z,98731.44
2023-05-05T14:33:47.318Z,98729.55
2023-05-05T14:36:14.410Z,98731.97
2023-05-05T14:38:43.025Z,98732.15
2023-05-05T14:41:10.097Z,98740.11
2023-05-05T14:43:37.110Z,98741.66
2023-05-05T14:46:06.902Z,98740.52
2023-05-05T14:48:34.499Z,98746.55
2023-05-05T14:51:01.405Z,98743.72
2023-05-05T14:53:28.283Z,98744.04
2023-05-05T14:55:55.136Z,98746.10
2023-05-05T14:58:24.554Z,98746.16
2023-05-05T15:00:52.923Z,98745.05
2023-05-05T15:03:19.862Z,98740.69
2023-05-05T15:05:46.765Z,98740.38
2023-05-05T15:08:14.542Z,98742.92
2023-05-05T15:10:41.357Z,98745.57
2023-05-05T15:13:08.236Z,98744.41
2023-05-05T15:15:35.079Z,98746.88
2023-05-05T15:18:02.200Z,98747.78
2023-05-05T15:20:29.094Z,98744.48
2023-05-05T15:22:55.961Z,98747.61
2023-05-05T15:25:23.350Z,98744.95
2023-05-05T15:27:50.286Z,98745.97
2023-05-05T15:30:17.202Z,98744.26
2023-05-05T15:32:44.256Z,98743.81
2023-05-05T15:35:11.119Z,98744.78
2023-05-05T15:37:38.010Z,98741.33
2023-05-05T15:40:06.360Z,98740.84
2023-05-05T15:42:33.934Z,98744.82
2023-05-05T15:45:01.524Z,98744.00
2023-05-05T15:47:28.382Z,98739.84
2023-05-05T15:49:55.197Z,98735.20
2023-05-05T15:52:22.201Z,98735.44
2023-05-05T15:54:49.231Z,98731.77
2023-05-05T15:57:16.390Z,98732.38
2023-05-05T15:59:43.260Z,98727.75
2023-05-05T16:02:10.063Z,98727.14
2023-05-05T16:04:37.670Z,98726.65
2023-05-05T16:07:04.450Z,98731.09
2023-05-05T16:09:31.251Z,98728.75
2023-05-05T16:11:58.013Z,98723.58
2023-05-05T16:14:25.156Z,98724.05
2023-05-05T16:16:51.980Z,98722.93
2023-05-05T16:19:18.900Z,98720.13
2023-05-05T16:21:46.267Z,98717.54
2023-05-05T16:24:16.504Z,98718.94
2023-05-05T16:26:43.919Z,98716.98
2023-05-05T16:29:11.041Z,98724.73
2023-05-05T16:31:38.080Z,98725.11
2023-05-05T16:34:04.911Z,98723.32
2023-05-05T16:36:31.827Z,98727.27
2023-05-05T16:38:58.994Z,98734.40
2023-05-05T16:41:26.850Z,98732.63
2023-05-05T16:43:53.804Z,98728.89
2023-05-05T16:46:20.651Z,98729.96
2023-05-05T16:48:47.445Z,98733.81
2023-05-05T16:51:14.445Z,98735.89
2023-05-05T16:53:41.242Z,98739.70
2023-05-05T16:56:11.414Z,98740.70
2023-05-05T16:58:38.178Z,98740.55
2023-05-05T17:01:05.014Z,98737.11
2023-05-05T17:03:31.911Z,98735.66
2023-05-05T17:05:58.814Z,98741.30
2023-05-05T17:08:25.918Z,98737.48
2023-05-05T17:10:52.642Z,98744.11
2023-05-05T17:13:19.503Z,98742.30
2023-05-05T17:15:46.897Z,98744.40
2023-05-05T17:18:13.633Z,98742.60
2023-05-05T17:20:40.359Z,98742.16
2023-05-05T17:23:08.815Z,98745.17
2023-05-05T17:25:35.942Z,98743.80
2023-05-05T17:28:02.904Z,98748.36
2023-05-05T17:30:29.904Z,98747.48
2023-05-05T17:32:57.007Z,98755.05
2023-05-05T17:35:23.932Z,98756.30
2023-05-05T17:37:50.729Z,98758.11
2023-05-05T17:40:17.804Z,98757.75
2023-05-05T17:42:44.560Z,98760.46
2023-05-05T17:45:12.037Z,98768.23
2023-05-05T17:47:39.022Z,98764.46
2023-05-05T17:50:06.495Z,98763.90
2023-05-05T17:52:33.306Z,98763.33
2023-05-05T17:55:00.122Z,98767.02
2023-05-05T17:57:27.016Z,98768.30
2023-05-05T17:59:53.968Z,98768.27
2023-05-05T18:02:21.069Z,98766.68
2023-05-05T18:04:48.154Z,98764.95
2023-05-05T18:07:15.017Z,98763.23
2023-05-05T18:09:42.217Z,98767.17
2023-05-05T18:12:09.280Z,98764.80
2023-05-05T18:14:36.494Z,98766.68
2023-05-05T18:17:04.741Z,98764.59
2023-05-05T18:19:31.954Z,98766.94
2023-05-05T18:21:59.181Z,98772.00
2023-05-05T18:24:26.170Z,98774.05
2023-05-05T18:26:53.353Z,98775.17
2023-05-05T18:29:22.570Z,98784.80
2023-05-05T18:31:53.045Z,98781.79
2023-05-05T18:34:20.781Z,98781.74
2023-05-05T18:36:48.394Z,98784.16
2023-05-05T18:39:15.334Z,98783.11
2023-05-05T18:41:42.153Z,98783.65
2023-05-05T18:44:09.995Z,98783.22
2023-05-05T18:46:36.978Z,98779.02
2023-05-05T18:49:03.926Z,98783.20
2023-05-05T18:51:30.846Z,98776.76
2023-05-05T18:53:57.905Z,98777.47
2023-05-05T18:56:24.731Z,98775.90
2023-05-05T18:58:51.541Z,98778.77
2023-05-05T19:01:18.451Z,98787.93
2023-05-05T19:03:48.526Z,98792.20
2023-05-05T19:06:16.337Z,98788.09
2023-05-05T19:08:45.178Z,98791.52
2023-05-05T19:11:12.856Z,98786.11
2023-05-05T19:13:39.934Z,98789.34
2023-05-05T19:16:07.350Z,98786.92
2023-05-05T19:18:34.390Z,98789.06
2023-05-05T19:21:01.664Z,98789.95
2023-05-05T19:23:28.582Z,98789.73
2023-05-05T19:25:55.620Z,98791.21
2023-05-05T19:28:22.746Z,98789.44
2023-05-05T19:30:49.561Z,98783.45
2023-05-05T19:33:16.644Z,98785.48
2023-05-05T19:35:44.395Z,98781.46
2023-05-05T19:38:11.993Z,98784.80
2023-05-05T19:40:39.548Z,98782.81
2023-05-05T19:43:07.169Z,98784.96
2023-05-05T19:45:34.175Z,98781.20
2023-05-05T19:48:01.770Z,98781.62
2023-05-05T19:50:30.330Z,98779.02
2023-05-05T19:52:58.073Z,98777.64
2023-05-05T19:55:25.075Z,98776.50
2023-05-05T19:57:51.921Z,98778.65
2023-05-05T20:00:19.713Z,98782.00
2023-05-05T20:02:47.513Z,98789.77
2023-05-05T20:05:16.365Z,98787.83
2023-05-05T20:07:44.357Z,98790.30
2023-05-05T20:10:13.577Z,98791.68
2023-05-05T20:12:42.505Z,98789.84
2023-05-05T20:15:10.976Z,98780.37
2023-05-05T20:17:37.851Z,98782.62
2023-05-05T20:20:05.256Z,98779.05
2023-05-05T20:22:32.176Z,98777.61
2023-05-05T20:24:59.056Z,98777.52
2023-05-05T20:27:26.759Z,98778.48
2023-05-05T20:29:55.375Z,98779.35
2023-05-05T20:32:22.222Z,98782.76
2023-05-05T20:34:49.245Z,98778.91
2023-05-05T20:37:16.190Z,98782.92
2023-05-05T20:39:43.826Z,98781.14
2023-05-05T20:42:11.007Z,98775.69
2023-05-05T20:44:38.302Z,98777.86
2023-05-05T20:47:05.336Z,98783.70
2023-05-05T20:49:32.180Z,98780.73
2023-05-05T20:51:59.034Z,98780.20
2023-05-05T20:54:25.796Z,98780.04
2023-05-05T20:56:53.197Z,98778.33
2023-05-05T20:59:19.919Z,98773.05
2023-05-05T21:01:46.948Z,98775.70
2023-05-05T21:04:13.780Z,98773.96
2023-05-05T21:06:40.509Z,98777.13
2023-05-05T21:09:07.362Z,98773.47
2023-05-05T21:11:34.220Z,98772.97
2023-05-05T21:14:00.983Z,98772.40
2023-05-05T21:16:27.781Z,98772.96
2023-05-05T21:18:54.588Z,98773.23
2023-05-05T21:21:21.320Z,98771.31
2023-05-05T21:23:48.222Z,98769.02
2023-05-05T21:26:15.273Z,98766.13
2023-05-05T21:28:42.089Z,98763.77
2023-05-05T21:33:38.686Z,98759.02
2023-05-05T21:36:06.174Z,98761.86
2023-05-05T21:38:33.064Z,98761.32
2023-05-05T21:40:59.862Z,98762.36
2023-05-05T21:43:28.795Z,98756.28
2023-05-05T21:45:59.865Z,98756.63
2023-05-05T21:48:26.870Z,98752.45
2023-05-05T21:50:54.518Z,98748.66
2023-05-05T21:53:21.651Z,98747.35
2023-05-05T21:55:48.515Z,98745.23
2023-05-05T21:58:16.428Z,98746.31
2023-05-05T22:00:43.229Z,98753.04
2023-05-05T22:03:10.155Z,98750.95
2023-05-05T22:05:37.049Z,98754.05
2023-05-05T22:08:04.039Z,98749.94
2023-05-05T22:10:31.220Z,98751.87
2023-05-05T22:12:58.245Z,98750.45
2023-05-05T22:15:30.004Z,98749.55
2023-05-05T22:17:59.749Z,98747.25
2023-05-05T22:20:26.715Z,98748.90
2023-05-05T22:22:53.480Z,98752.34
2023-05-05T22:25:20.357Z,98753.17
2023-05-05T22:27:47.369Z,98748.83
2023-05-05T22:30:14.412Z,98746.43
2023-05-05T22:32:43.474Z,98742.14
2023-05-05T22:35:10.563Z,98739.69
2023-05-05T22:37:37.570Z,98734.43
2023-05-05T22:40:04.942Z,98732.06
2023-05-05T22:42:31.930Z,98730.49
2023-05-05T22:44:58.750Z,98729.85
2023-05-05T22:47:25.572Z,98729.27
2023-05-05T22:49:52.433Z,98724.73
2023-05-05T22:52:19.382Z,98722.11
2023-05-05T22:54:46.343Z,98722.00
2023-05-05T22:57:13.203Z,98723.17
2023-05-05T22:59:40.060Z,98724.21
2023-05-05T23:02:06.897Z,98721.41
2023-05-05T23:04:33.702Z,98719.31
2023-05-05T23:07:00.837Z,98716.64
2023-05-05T23:09:27.657Z,98713.06
2023-05-05T23:11:54.493Z,98709.86
2023-05-05T23:14:21.598Z,98707.40
2023-05-05T23:16:48.708Z,98701.98
2023-05-05T23:19:15.574Z,98707.09
2023-05-05T23:21:52.835Z,98704.50
2023-05-05T23:24:20.563Z,98707.12
2023-05-05T23:26:47.338Z,98705.27
2023-05-05T23:29:14.053Z,98705.45
2023-05-05T23:31:40.873Z,98705.70
2023-05-05T23:34:07.590Z,98706.76
2023-05-05T23:36:34.483Z,98705.10
2023-05-05T23:39:01.272Z,98708.14
2023-05-05T23:41:28.077Z,98705.48
2023-05-05T23:43:54.992Z,98708.42
2023-05-05T23:46:21.999Z,98715.48
2023-05-05T23:48:49.707Z,98709.71
2023-05-05T23:51:17.228Z,98701.84
2023-05-05T23:53:44.057Z,98703.94
2023-05-05T23:56:10.850Z,98703.45
2023-05-05T23:58:37.784Z,98698.45
